Charlemont, Massachusetts
Current Conditions -  °F | °C
As of 12:52 AM on Sunday 26 Oct 2014 (Local Time) from KAQW Reporting Station
Haze Haze  
Wind Chill: 45°   Ceiling: Unl
Heat Index: 45°   Visibility: 6mi
Dew Point: 44°   Wind: 0mph
Humidity: 97%   Direction: NA
Pressure: 29.52"   Gusts: NA
Location:  42.63°N, 72.87°W
Report Text: KAQW 260452Z AUTO 00000KT 6SM BR FEW075 07/07 A2952 RMK AO2 SLP998 T00720067 401610028
Loading
Personal Weather Stations






























Interactive Weather Map
Tropical Storm Tracking
New forecast layout! Learn more

10-Day Weather Forecast

Advertisements
Track Severe Weather on mobile